sensor_id;sensor_type;location;lat;lon;timestamp;P1;durP1;ratioP1;P2;durP2;ratioP2
8622;SDS011;4349;47.552;8.904;2024-01-15T18:20:37;9.07;;;7.80;;
8622;SDS011;4349;47.552;8.904;2024-01-15T18:23:04;8.90;;;7.57;;
8622;SDS011;4349;47.552;8.904;2024-01-15T18:25:32;9.40;;;8.27;;
8622;SDS011;4349;47.552;8.904;2024-01-15T18:28:00;9.07;;;7.43;;
8622;SDS011;4349;47.552;8.904;2024-01-15T18:30:27;11.87;;;8.37;;
8622;SDS011;4349;47.552;8.904;2024-01-15T18:32:55;9.80;;;8.00;;
8622;SDS011;4349;47.552;8.904;2024-01-15T18:35:22;11.93;;;8.53;;
8622;SDS011;4349;47.552;8.904;2024-01-15T18:37:53;12.03;;;8.63;;
8622;SDS011;4349;47.552;8.904;2024-01-15T18:40:21;9.93;;;8.07;;
8622;SDS011;4349;47.552;8.904;2024-01-15T18:42:48;13.13;;;9.40;;
8622;SDS011;4349;47.552;8.904;2024-01-15T18:45:16;10.87;;;8.53;;
8622;SDS011;4349;47.552;8.904;2024-01-15T18:47:43;11.50;;;7.93;;
8622;SDS011;4349;47.552;8.904;2024-01-15T18:50:11;11.17;;;8.30;;
8622;SDS011;4349;47.552;8.904;2024-01-15T18:52:39;9.97;;;8.57;;
8622;SDS011;4349;47.552;8.904;2024-01-15T18:55:08;9.97;;;8.27;;
8622;SDS011;4349;47.552;8.904;2024-01-15T18:57:39;8.13;;;7.10;;
8622;SDS011;4349;47.552;8.904;2024-01-15T19:00:07;8.87;;;7.60;;
8622;SDS011;4349;47.552;8.904;2024-01-15T19:02:37;11.07;;;8.30;;
8622;SDS011;4349;47.552;8.904;2024-01-15T19:05:05;10.27;;;7.90;;
8622;SDS011;4349;47.552;8.904;2024-01-15T19:07:32;10.30;;;8.20;;
8622;SDS011;4349;47.552;8.904;2024-01-15T19:10:00;9.73;;;7.97;;
8622;SDS011;4349;47.552;8.904;2024-01-15T19:12:29;10.00;;;8.03;;
8622;SDS011;4349;47.552;8.904;2024-01-15T19:14:56;10.57;;;7.97;;
8622;SDS011;4349;47.552;8.904;2024-01-15T19:17:24;10.27;;;8.10;;
8622;SDS011;4349;47.552;8.904;2024-01-15T19:19:52;10.90;;;8.00;;
8622;SDS011;4349;47.552;8.904;2024-01-15T19:22:19;10.23;;;8.17;;
8622;SDS011;4349;47.552;8.904;2024-01-15T19:24:47;11.53;;;8.97;;
8622;SDS011;4349;47.552;8.904;2024-01-15T19:27:14;8.83;;;7.77;;
8622;SDS011;4349;47.552;8.904;2024-01-15T19:29:43;8.47;;;7.57;;
8622;SDS011;4349;47.552;8.904;2024-01-15T19:32:11;9.47;;;7.47;;
8622;SDS011;4349;47.552;8.904;2024-01-15T19:34:39;9.93;;;7.87;;
8622;SDS011;4349;47.552;8.904;2024-01-15T19:37:07;9.13;;;7.63;;
8622;SDS011;4349;47.552;8.904;2024-01-15T19:39:34;9.60;;;7.63;;
8622;SDS011;4349;47.552;8.904;2024-01-15T19:42:02;9.40;;;7.70;;
8622;SDS011;4349;47.552;8.904;2024-01-15T19:44:30;10.53;;;8.07;;
8622;SDS011;4349;47.552;8.904;2024-01-15T19:46:59;9.97;;;7.33;;
8622;SDS011;4349;47.552;8.904;2024-01-15T19:49:27;8.50;;;7.10;;
8622;SDS011;4349;47.552;8.904;2024-01-15T19:51:55;11.83;;;8.47;;
8622;SDS011;4349;47.552;8.904;2024-01-15T19:54:22;15.53;;;10.53;;
8622;SDS011;4349;47.552;8.904;2024-01-15T19:56:50;11.30;;;7.47;;
8622;SDS011;4349;47.552;8.904;2024-01-15T19:59:17;9.40;;;7.73;;
8622;SDS011;4349;47.552;8.904;2024-01-15T20:01:45;10.80;;;7.80;;
8622;SDS011;4349;47.552;8.904;2024-01-15T20:04:14;9.60;;;7.67;;
8622;SDS011;4349;47.552;8.904;2024-01-15T20:06:42;8.93;;;7.23;;
8622;SDS011;4349;47.552;8.904;2024-01-15T20:09:09;8.87;;;7.33;;
8622;SDS011;4349;47.552;8.904;2024-01-15T20:11:37;9.43;;;7.67;;
8622;SDS011;4349;47.552;8.904;2024-01-15T20:14:06;9.37;;;7.83;;
8622;SDS011;4349;47.552;8.904;2024-01-15T20:16:34;9.50;;;6.77;;
8622;SDS011;4349;47.552;8.904;2024-01-15T20:19:02;10.83;;;7.30;;
8622;SDS011;4349;47.552;8.904;2024-01-15T20:21:31;8.50;;;6.47;;
8622;SDS011;4349;47.552;8.904;2024-01-15T20:23:59;9.57;;;7.27;;
8622;SDS011;4349;47.552;8.904;2024-01-15T20:26:30;7.27;;;6.47;;
8622;SDS011;4349;47.552;8.904;2024-01-15T20:28:57;8.40;;;6.70;;
8622;SDS011;4349;47.552;8.904;2024-01-15T20:31:25;8.23;;;6.70;;
8622;SDS011;4349;47.552;8.904;2024-01-15T20:33:53;9.83;;;6.73;;
8622;SDS011;4349;47.552;8.904;2024-01-15T20:36:21;9.37;;;6.90;;
8622;SDS011;4349;47.552;8.904;2024-01-15T20:38:50;9.07;;;7.17;;
8622;SDS011;4349;47.552;8.904;2024-01-15T20:41:18;7.80;;;7.00;;
8622;SDS011;4349;47.552;8.904;2024-01-15T20:43:45;8.27;;;7.33;;
8622;SDS011;4349;47.552;8.904;2024-01-15T20:46:13;10.30;;;7.00;;
8622;SDS011;4349;47.552;8.904;2024-01-15T20:48:41;8.37;;;6.70;;
8622;SDS011;4349;47.552;8.904;2024-01-15T20:51:08;9.30;;;6.37;;
8622;SDS011;4349;47.552;8.904;2024-01-15T20:53:37;8.20;;;6.83;;
8622;SDS011;4349;47.552;8.904;2024-01-15T20:56:07;8.83;;;6.70;;
8622;SDS011;4349;47.552;8.904;2024-01-15T20:58:34;8.10;;;6.83;;
8622;SDS011;4349;47.552;8.904;2024-01-15T21:01:03;8.07;;;6.40;;
8622;SDS011;4349;47.552;8.904;2024-01-15T21:03:31;10.73;;;7.20;;
8622;SDS011;4349;47.552;8.904;2024-01-15T21:05:59;6.70;;;6.10;;
8622;SDS011;4349;47.552;8.904;2024-01-15T21:08:27;8.67;;;6.60;;
8622;SDS011;4349;47.552;8.904;2024-01-15T21:10:55;8.07;;;5.93;;
8622;SDS011;4349;47.552;8.904;2024-01-15T21:13:24;9.77;;;7.13;;
8622;SDS011;4349;47.552;8.904;2024-01-15T21:15:52;9.73;;;6.80;;
8622;SDS011;4349;47.552;8.904;2024-01-15T21:18:19;8.57;;;6.50;;
8622;SDS011;4349;47.552;8.904;2024-01-15T21:20:47;7.40;;;6.43;;
8622;SDS011;4349;47.552;8.904;2024-01-15T21:23:15;8.70;;;6.80;;
8622;SDS011;4349;47.552;8.904;2024-01-15T21:25:42;9.00;;;6.37;;
8622;SDS011;4349;47.552;8.904;2024-01-15T21:28:10;8.93;;;6.20;;
8622;SDS011;4349;47.552;8.904;2024-01-15T21:30:39;8.17;;;6.43;;
8622;SDS011;4349;47.552;8.904;2024-01-15T21:33:06;7.40;;;6.30;;
8622;SDS011;4349;47.552;8.904;2024-01-15T21:35:35;7.90;;;6.23;;
8622;SDS011;4349;47.552;8.904;2024-01-15T21:38:03;8.37;;;6.37;;
8622;SDS011;4349;47.552;8.904;2024-01-15T21:40:32;6.90;;;6.20;;
8622;SDS011;4349;47.552;8.904;2024-01-15T21:42:59;8.07;;;6.30;;
8622;SDS011;4349;47.552;8.904;2024-01-15T21:45:27;9.87;;;7.00;;
8622;SDS011;4349;47.552;8.904;2024-01-15T21:47:56;9.70;;;6.60;;
8622;SDS011;4349;47.552;8.904;2024-01-15T21:50:24;10.70;;;7.83;;
8622;SDS011;4349;47.552;8.904;2024-01-15T21:52:52;9.13;;;6.90;;
8622;SDS011;4349;47.552;8.904;2024-01-15T21:55:19;7.27;;;6.50;;
8622;SDS011;4349;47.552;8.904;2024-01-15T21:57:47;9.83;;;6.80;;
8622;SDS011;4349;47.552;8.904;2024-01-15T22:00:15;10.30;;;7.30;;
8622;SDS011;4349;47.552;8.904;2024-01-15T22:02:43;11.30;;;7.43;;
8622;SDS011;4349;47.552;8.904;2024-01-15T22:05:13;9.27;;;7.30;;
8622;SDS011;4349;47.552;8.904;2024-01-15T22:07:42;9.83;;;7.43;;
8622;SDS011;4349;47.552;8.904;2024-01-15T22:10:10;9.23;;;7.17;;
8622;SDS011;4349;47.552;8.904;2024-01-15T22:12:38;14.20;;;8.07;;
8622;SDS011;4349;47.552;8.904;2024-01-15T22:15:06;13.70;;;8.70;;
8622;SDS011;4349;47.552;8.904;2024-01-15T22:17:34;10.80;;;8.27;;
8622;SDS011;4349;47.552;8.904;2024-01-15T22:20:02;9.23;;;7.03;;
8622;SDS011;4349;47.552;8.904;2024-01-15T22:22:31;8.57;;;6.97;;
8622;SDS011;4349;47.552;8.904;2024-01-15T22:25:00;8.50;;;7.00;;
8622;SDS011;4349;47.552;8.904;2024-01-15T22:27:28;10.13;;;7.50;;
8622;SDS011;4349;47.552;8.904;2024-01-15T22:29:55;8.30;;;6.77;;
8622;SDS011;4349;47.552;8.904;2024-01-15T22:32:23;8.40;;;7.33;;
8622;SDS011;4349;47.552;8.904;2024-01-15T22:34:53;8.27;;;7.00;;
8622;SDS011;4349;47.552;8.904;2024-01-15T22:37:21;9.67;;;7.50;;
8622;SDS011;4349;47.552;8.904;2024-01-15T22:39:50;9.93;;;7.27;;
8622;SDS011;4349;47.552;8.904;2024-01-15T22:42:17;10.20;;;7.43;;
8622;SDS011;4349;47.552;8.904;2024-01-15T22:44:45;7.83;;;6.63;;
8622;SDS011;4349;47.552;8.904;2024-01-15T22:47:13;9.87;;;7.23;;
8622;SDS011;4349;47.552;8.904;2024-01-15T22:49:41;7.77;;;6.97;;
8622;SDS011;4349;47.552;8.904;2024-01-15T22:52:09;9.50;;;7.33;;
8622;SDS011;4349;47.552;8.904;2024-01-15T22:54:36;11.33;;;7.90;;
8622;SDS011;4349;47.552;8.904;2024-01-15T22:57:05;8.07;;;7.20;;
8622;SDS011;4349;47.552;8.904;2024-01-15T22:59:33;9.40;;;7.67;;
8622;SDS011;4349;47.552;8.904;2024-01-15T23:02:01;10.47;;;7.47;;
8622;SDS011;4349;47.552;8.904;2024-01-15T23:04:28;9.33;;;7.83;;
8622;SDS011;4349;47.552;8.904;2024-01-15T23:06:56;10.77;;;7.57;;
8622;SDS011;4349;47.552;8.904;2024-01-15T23:09:23;10.73;;;8.17;;
8622;SDS011;4349;47.552;8.904;2024-01-15T23:11:51;9.90;;;8.27;;
8622;SDS011;4349;47.552;8.904;2024-01-15T23:14:20;13.77;;;9.80;;
8622;SDS011;4349;47.552;8.904;2024-01-15T23:16:48;11.50;;;8.67;;
8622;SDS011;4349;47.552;8.904;2024-01-15T23:19:15;11.23;;;8.97;;
8622;SDS011;4349;47.552;8.904;2024-01-15T23:21:43;10.70;;;8.30;;
8622;SDS011;4349;47.552;8.904;2024-01-15T23:24:11;10.03;;;7.83;;
8622;SDS011;4349;47.552;8.904;2024-01-15T23:26:38;10.33;;;7.60;;
8622;SDS011;4349;47.552;8.904;2024-01-15T23:29:06;9.73;;;7.50;;
8622;SDS011;4349;47.552;8.904;2024-01-15T23:31:35;9.40;;;7.40;;
8622;SDS011;4349;47.552;8.904;2024-01-15T23:34:06;8.00;;;6.90;;
8622;SDS011;4349;47.552;8.904;2024-01-15T23:36:35;8.87;;;6.90;;
8622;SDS011;4349;47.552;8.904;2024-01-15T23:39:02;8.07;;;7.13;;
8622;SDS011;4349;47.552;8.904;2024-01-15T23:41:34;8.27;;;7.40;;
8622;SDS011;4349;47.552;8.904;2024-01-15T23:44:02;8.90;;;7.30;;
8622;SDS011;4349;47.552;8.904;2024-01-15T23:46:30;9.57;;;7.10;;
8622;SDS011;4349;47.552;8.904;2024-01-15T23:49:00;8.43;;;7.03;;
8622;SDS011;4349;47.552;8.904;2024-01-15T23:51:28;9.40;;;7.57;;
8622;SDS011;4349;47.552;8.904;2024-01-15T23:53:56;8.57;;;7.07;;
8622;SDS011;4349;47.552;8.904;2024-01-15T23:56:23;9.63;;;7.33;;
8622;SDS011;4349;47.552;8.904;2024-01-15T23:58:51;7.87;;;6.60;;
